sensor_id;sensor_type;location;lat;lon;timestamp;P1;durP1;ratioP1;P2;durP2;ratioP2
60018;SDS011;45870;42.528;26.740;2022-08-19T00:00:48;13.82;;;11.68;;
60018;SDS011;45870;42.528;26.740;2022-08-19T00:03:15;12.90;;;11.00;;
60018;SDS011;45870;42.528;26.740;2022-08-19T00:05:41;13.05;;;10.88;;
60018;SDS011;45870;42.528;26.740;2022-08-19T00:08:07;14.55;;;11.32;;
60018;SDS011;45870;42.528;26.740;2022-08-19T00:10:33;13.23;;;11.25;;
60018;SDS011;45870;42.528;26.740;2022-08-19T00:12:59;14.52;;;11.35;;
60018;SDS011;45870;42.528;26.740;2022-08-19T00:15:27;11.32;;;10.00;;
60018;SDS011;45870;42.528;26.740;2022-08-19T00:17:53;16.42;;;10.70;;
60018;SDS011;45870;42.528;26.740;2022-08-19T00:20:20;16.40;;;10.98;;
60018;SDS011;45870;42.528;26.740;2022-08-19T00:22:47;13.70;;;10.85;;
60018;SDS011;45870;42.528;26.740;2022-08-19T00:25:14;12.80;;;11.30;;
60018;SDS011;45870;42.528;26.740;2022-08-19T00:27:41;12.75;;;11.02;;
60018;SDS011;45870;42.528;26.740;2022-08-19T00:30:07;13.50;;;11.55;;
60018;SDS011;45870;42.528;26.740;2022-08-19T00:32:35;13.80;;;11.25;;
60018;SDS011;45870;42.528;26.740;2022-08-19T00:35:01;14.82;;;11.52;;
60018;SDS011;45870;42.528;26.740;2022-08-19T00:37:27;14.77;;;11.00;;
60018;SDS011;45870;42.528;26.740;2022-08-19T00:39:53;24.15;;;11.35;;
60018;SDS011;45870;42.528;26.740;2022-08-19T00:42:21;12.40;;;10.98;;
60018;SDS011;45870;42.528;26.740;2022-08-19T00:44:48;12.48;;;11.02;;
60018;SDS011;45870;42.528;26.740;2022-08-19T00:47:14;13.27;;;11.25;;
60018;SDS011;45870;42.528;26.740;2022-08-19T00:49:41;12.63;;;10.70;;
60018;SDS011;45870;42.528;26.740;2022-08-19T00:52:17;12.65;;;10.65;;
60018;SDS011;45870;42.528;26.740;2022-08-19T00:54:47;15.38;;;11.45;;
60018;SDS011;45870;42.528;26.740;2022-08-19T00:57:15;12.90;;;11.13;;
60018;SDS011;45870;42.528;26.740;2022-08-19T00:59:44;13.23;;;11.30;;
60018;SDS011;45870;42.528;26.740;2022-08-19T01:02:13;15.18;;;11.15;;
60018;SDS011;45870;42.528;26.740;2022-08-19T01:04:40;18.33;;;10.98;;
60018;SDS011;45870;42.528;26.740;2022-08-19T01:07:05;14.93;;;10.85;;
60018;SDS011;45870;42.528;26.740;2022-08-19T01:09:32;19.13;;;11.80;;
60018;SDS011;45870;42.528;26.740;2022-08-19T01:11:59;11.63;;;10.38;;
60018;SDS011;45870;42.528;26.740;2022-08-19T01:14:25;16.25;;;10.98;;
60018;SDS011;45870;42.528;26.740;2022-08-19T01:16:51;13.65;;;11.60;;
60018;SDS011;45870;42.528;26.740;2022-08-19T01:19:23;15.18;;;11.55;;
60018;SDS011;45870;42.528;26.740;2022-08-19T01:24:47;14.18;;;11.27;;
60018;SDS011;45870;42.528;26.740;2022-08-19T01:27:13;13.45;;;11.30;;
60018;SDS011;45870;42.528;26.740;2022-08-19T01:29:40;16.52;;;11.50;;
60018;SDS011;45870;42.528;26.740;2022-08-19T01:32:07;13.65;;;12.20;;
60018;SDS011;45870;42.528;26.740;2022-08-19T01:34:37;14.57;;;11.43;;
60018;SDS011;45870;42.528;26.740;2022-08-19T01:37:09;16.63;;;11.52;;
60018;SDS011;45870;42.528;26.740;2022-08-19T01:39:37;12.82;;;11.50;;
60018;SDS011;45870;42.528;26.740;2022-08-19T01:42:05;14.35;;;11.63;;
60018;SDS011;45870;42.528;26.740;2022-08-19T01:44:34;14.25;;;11.15;;
60018;SDS011;45870;42.528;26.740;2022-08-19T01:47:01;14.07;;;11.15;;
60018;SDS011;45870;42.528;26.740;2022-08-19T01:49:28;14.68;;;11.43;;
60018;SDS011;45870;42.528;26.740;2022-08-19T01:51:54;13.60;;;11.10;;
60018;SDS011;45870;42.528;26.740;2022-08-19T01:54:21;12.30;;;11.00;;
60018;SDS011;45870;42.528;26.740;2022-08-19T01:56:50;15.07;;;12.00;;
60018;SDS011;45870;42.528;26.740;2022-08-19T01:59:19;13.80;;;11.30;;
60018;SDS011;45870;42.528;26.740;2022-08-19T02:01:48;14.23;;;11.27;;
60018;SDS011;45870;42.528;26.740;2022-08-19T02:04:14;18.25;;;11.57;;
60018;SDS011;45870;42.528;26.740;2022-08-19T02:06:40;16.40;;;11.80;;
60018;SDS011;45870;42.528;26.740;2022-08-19T02:09:06;13.15;;;11.57;;
60018;SDS011;45870;42.528;26.740;2022-08-19T02:11:33;14.00;;;11.75;;
60018;SDS011;45870;42.528;26.740;2022-08-19T02:14:02;13.90;;;11.27;;
60018;SDS011;45870;42.528;26.740;2022-08-19T02:16:30;15.43;;;11.27;;
60018;SDS011;45870;42.528;26.740;2022-08-19T02:18:55;14.15;;;12.30;;
60018;SDS011;45870;42.528;26.740;2022-08-19T02:21:22;12.68;;;11.30;;
60018;SDS011;45870;42.528;26.740;2022-08-19T02:23:48;13.93;;;11.65;;
60018;SDS011;45870;42.528;26.740;2022-08-19T02:26:15;13.73;;;11.55;;
60018;SDS011;45870;42.528;26.740;2022-08-19T02:28:42;15.15;;;11.63;;
60018;SDS011;45870;42.528;26.740;2022-08-19T02:31:09;12.68;;;11.32;;
60018;SDS011;45870;42.528;26.740;2022-08-19T02:33:36;18.45;;;12.95;;
60018;SDS011;45870;42.528;26.740;2022-08-19T02:36:05;17.85;;;12.40;;
60018;SDS011;45870;42.528;26.740;2022-08-19T02:38:32;14.93;;;11.85;;
60018;SDS011;45870;42.528;26.740;2022-08-19T02:41:01;15.77;;;12.93;;
60018;SDS011;45870;42.528;26.740;2022-08-19T02:43:30;15.00;;;12.50;;
60018;SDS011;45870;42.528;26.740;2022-08-19T02:45:57;18.90;;;12.27;;
60018;SDS011;45870;42.528;26.740;2022-08-19T02:48:24;15.25;;;12.45;;
60018;SDS011;45870;42.528;26.740;2022-08-19T02:50:51;17.13;;;12.68;;
60018;SDS011;45870;42.528;26.740;2022-08-19T02:53:20;17.67;;;12.98;;
60018;SDS011;45870;42.528;26.740;2022-08-19T02:55:48;18.38;;;12.65;;
60018;SDS011;45870;42.528;26.740;2022-08-19T02:58:15;17.13;;;12.85;;
60018;SDS011;45870;42.528;26.740;2022-08-19T03:00:47;17.55;;;12.30;;
60018;SDS011;45870;42.528;26.740;2022-08-19T03:03:15;18.25;;;12.95;;
60018;SDS011;45870;42.528;26.740;2022-08-19T03:05:41;16.73;;;12.90;;
60018;SDS011;45870;42.528;26.740;2022-08-19T03:08:08;18.38;;;13.15;;
60018;SDS011;45870;42.528;26.740;2022-08-19T03:10:42;13.82;;;11.70;;
60018;SDS011;45870;42.528;26.740;2022-08-19T03:13:12;18.02;;;12.10;;
60018;SDS011;45870;42.528;26.740;2022-08-19T03:15:42;15.57;;;12.60;;
60018;SDS011;45870;42.528;26.740;2022-08-19T03:18:09;14.25;;;11.00;;
60018;SDS011;45870;42.528;26.740;2022-08-19T03:20:43;15.73;;;12.85;;
60018;SDS011;45870;42.528;26.740;2022-08-19T03:23:10;16.90;;;12.40;;
60018;SDS011;45870;42.528;26.740;2022-08-19T03:25:40;19.88;;;12.55;;
60018;SDS011;45870;42.528;26.740;2022-08-19T03:28:08;14.48;;;12.07;;
60018;SDS011;45870;42.528;26.740;2022-08-19T03:30:37;16.35;;;12.18;;
60018;SDS011;45870;42.528;26.740;2022-08-19T03:33:05;16.15;;;11.73;;
60018;SDS011;45870;42.528;26.740;2022-08-19T03:35:31;13.63;;;11.57;;
60018;SDS011;45870;42.528;26.740;2022-08-19T03:37:58;18.25;;;11.48;;
60018;SDS011;45870;42.528;26.740;2022-08-19T03:40:24;12.45;;;11.07;;
60018;SDS011;45870;42.528;26.740;2022-08-19T03:42:50;16.95;;;10.80;;
60018;SDS011;45870;42.528;26.740;2022-08-19T03:45:16;19.13;;;11.00;;
60018;SDS011;45870;42.528;26.740;2022-08-19T03:47:42;16.67;;;10.45;;
60018;SDS011;45870;42.528;26.740;2022-08-19T03:50:08;13.07;;;9.95;;
60018;SDS011;45870;42.528;26.740;2022-08-19T03:52:34;14.05;;;9.90;;
60018;SDS011;45870;42.528;26.740;2022-08-19T03:55:01;13.88;;;9.38;;
60018;SDS011;45870;42.528;26.740;2022-08-19T03:57:28;12.38;;;9.10;;
60018;SDS011;45870;42.528;26.740;2022-08-19T03:59:53;15.20;;;9.30;;
60018;SDS011;45870;42.528;26.740;2022-08-19T04:02:19;18.00;;;8.77;;
60018;SDS011;45870;42.528;26.740;2022-08-19T04:04:45;18.58;;;8.82;;
60018;SDS011;45870;42.528;26.740;2022-08-19T04:07:12;17.23;;;8.50;;
60018;SDS011;45870;42.528;26.740;2022-08-19T04:09:41;9.88;;;8.88;;
60018;SDS011;45870;42.528;26.740;2022-08-19T04:12:07;13.02;;;8.13;;
60018;SDS011;45870;42.528;26.740;2022-08-19T04:14:34;12.27;;;9.05;;
60018;SDS011;45870;42.528;26.740;2022-08-19T04:17:00;10.10;;;7.88;;
60018;SDS011;45870;42.528;26.740;2022-08-19T04:19:29;10.60;;;7.78;;
60018;SDS011;45870;42.528;26.740;2022-08-19T04:21:56;9.57;;;7.78;;
60018;SDS011;45870;42.528;26.740;2022-08-19T04:24:23;9.70;;;7.88;;
60018;SDS011;45870;42.528;26.740;2022-08-19T04:26:49;10.00;;;7.97;;
60018;SDS011;45870;42.528;26.740;2022-08-19T04:29:17;10.80;;;8.20;;
60018;SDS011;45870;42.528;26.740;2022-08-19T04:31:46;9.50;;;7.80;;
60018;SDS011;45870;42.528;26.740;2022-08-19T04:34:14;11.52;;;7.95;;
60018;SDS011;45870;42.528;26.740;2022-08-19T04:36:42;14.32;;;8.00;;
60018;SDS011;45870;42.528;26.740;2022-08-19T04:39:12;9.98;;;8.00;;
60018;SDS011;45870;42.528;26.740;2022-08-19T04:41:39;9.15;;;8.23;;
60018;SDS011;45870;42.528;26.740;2022-08-19T04:44:24;11.40;;;8.27;;
60018;SDS011;45870;42.528;26.740;2022-08-19T04:46:50;10.18;;;8.07;;
60018;SDS011;45870;42.528;26.740;2022-08-19T04:49:18;11.63;;;7.95;;
60018;SDS011;45870;42.528;26.740;2022-08-19T04:51:47;10.15;;;7.78;;
60018;SDS011;45870;42.528;26.740;2022-08-19T04:54:15;9.35;;;7.30;;
60018;SDS011;45870;42.528;26.740;2022-08-19T04:56:41;11.25;;;7.47;;
60018;SDS011;45870;42.528;26.740;2022-08-19T04:59:07;12.05;;;7.50;;
60018;SDS011;45870;42.528;26.740;2022-08-19T05:01:33;8.68;;;6.60;;
60018;SDS011;45870;42.528;26.740;2022-08-19T05:04:02;12.52;;;7.30;;
60018;SDS011;45870;42.528;26.740;2022-08-19T05:06:30;8.82;;;6.90;;
60018;SDS011;45870;42.528;26.740;2022-08-19T05:08:58;12.90;;;6.70;;
60018;SDS011;45870;42.528;26.740;2022-08-19T05:11:25;11.00;;;6.50;;
60018;SDS011;45870;42.528;26.740;2022-08-19T05:13:54;12.15;;;6.82;;
60018;SDS011;45870;42.528;26.740;2022-08-19T05:16:21;8.55;;;7.10;;
60018;SDS011;45870;42.528;26.740;2022-08-19T05:18:48;8.25;;;6.70;;
60018;SDS011;45870;42.528;26.740;2022-08-19T05:21:33;12.23;;;6.60;;
60018;SDS011;45870;42.528;26.740;2022-08-19T05:24:18;8.95;;;6.28;;
60018;SDS011;45870;42.528;26.740;2022-08-19T05:26:46;10.07;;;6.68;;
60018;SDS011;45870;42.528;26.740;2022-08-19T05:29:14;9.15;;;6.40;;
60018;SDS011;45870;42.528;26.740;2022-08-19T05:31:41;7.40;;;6.07;;
60018;SDS011;45870;42.528;26.740;2022-08-19T05:34:08;11.90;;;6.07;;
60018;SDS011;45870;42.528;26.740;2022-08-19T05:36:36;7.93;;;6.28;;
60018;SDS011;45870;42.528;26.740;2022-08-19T05:39:05;6.75;;;6.05;;
60018;SDS011;45870;42.528;26.740;2022-08-19T05:41:33;17.67;;;6.00;;
60018;SDS011;45870;42.528;26.740;2022-08-19T05:44:04;8.57;;;5.93;;
60018;SDS011;45870;42.528;26.740;2022-08-19T05:46:34;7.10;;;6.00;;
60018;SDS011;45870;42.528;26.740;2022-08-19T05:49:03;9.73;;;6.35;;
60018;SDS011;45870;42.528;26.740;2022-08-19T05:51:33;10.80;;;5.97;;
60018;SDS011;45870;42.528;26.740;2022-08-19T05:54:02;8.50;;;5.70;;
60018;SDS011;45870;42.528;26.740;2022-08-19T05:56:29;7.75;;;6.10;;
60018;SDS011;45870;42.528;26.740;2022-08-19T05:58:55;8.25;;;6.03;;
60018;SDS011;45870;42.528;26.740;2022-08-19T06:01:24;10.55;;;6.43;;
60018;SDS011;45870;42.528;26.740;2022-08-19T06:03:51;9.85;;;5.88;;
60018;SDS011;45870;42.528;26.740;2022-08-19T06:06:20;6.70;;;5.70;;
60018;SDS011;45870;42.528;26.740;2022-08-19T06:08:47;9.85;;;6.10;;
60018;SDS011;45870;42.528;26.740;2022-08-19T06:13:49;8.15;;;6.00;;
60018;SDS011;45870;42.528;26.740;2022-08-19T06:16:18;7.63;;;5.78;;
60018;SDS011;45870;42.528;26.740;2022-08-19T06:18:49;13.93;;;6.03;;
60018;SDS011;45870;42.528;26.740;2022-08-19T06:21:22;7.97;;;6.07;;
60018;SDS011;45870;42.528;26.740;2022-08-19T06:26:17;15.48;;;6.20;;
60018;SDS011;45870;42.528;26.740;2022-08-19T06:28:45;6.32;;;5.72;;
60018;SDS011;45870;42.528;26.740;2022-08-19T06:31:15;11.13;;;5.60;;
60018;SDS011;45870;42.528;26.740;2022-08-19T06:33:46;10.15;;;5.82;;
60018;SDS011;45870;42.528;26.740;2022-08-19T06:36:24;6.75;;;5.57;;
60018;SDS011;45870;42.528;26.740;2022-08-19T06:38:58;11.05;;;6.18;;
60018;SDS011;45870;42.528;26.740;2022-08-19T06:41:27;8.25;;;5.60;;
60018;SDS011;45870;42.528;26.740;2022-08-19T06:43:53;10.82;;;6.18;;
60018;SDS011;45870;42.528;26.740;2022-08-19T06:46:20;7.20;;;5.35;;
60018;SDS011;45870;42.528;26.740;2022-08-19T06:48:46;8.90;;;6.00;;
60018;SDS011;45870;42.528;26.740;2022-08-19T06:51:14;9.30;;;5.82;;
60018;SDS011;45870;42.528;26.740;2022-08-19T06:53:44;8.13;;;5.97;;
60018;SDS011;45870;42.528;26.740;2022-08-19T06:56:17;10.77;;;6.00;;
60018;SDS011;45870;42.528;26.740;2022-08-19T06:58:46;7.75;;;6.18;;
60018;SDS011;45870;42.528;26.740;2022-08-19T07:01:13;10.48;;;6.40;;
60018;SDS011;45870;42.528;26.740;2022-08-19T07:03:39;8.65;;;5.90;;
60018;SDS011;45870;42.528;26.740;2022-08-19T07:06:05;9.55;;;6.13;;
60018;SDS011;45870;42.528;26.740;2022-08-19T07:08:33;7.43;;;5.70;;
60018;SDS011;45870;42.528;26.740;2022-08-19T07:11:02;7.40;;;5.50;;
60018;SDS011;45870;42.528;26.740;2022-08-19T07:13:32;7.32;;;5.90;;
60018;SDS011;45870;42.528;26.740;2022-08-19T07:16:06;15.85;;;6.45;;
60018;SDS011;45870;42.528;26.740;2022-08-19T07:18:33;10.38;;;6.22;;
60018;SDS011;45870;42.528;26.740;2022-08-19T07:21:10;8.05;;;5.65;;
60018;SDS011;45870;42.528;26.740;2022-08-19T07:23:39;8.85;;;6.10;;
60018;SDS011;45870;42.528;26.740;2022-08-19T07:26:06;9.10;;;6.03;;
60018;SDS011;45870;42.528;26.740;2022-08-19T07:28:37;9.05;;;5.55;;
60018;SDS011;45870;42.528;26.740;2022-08-19T07:31:06;9.52;;;6.25;;
60018;SDS011;45870;42.528;26.740;2022-08-19T07:33:32;10.25;;;6.00;;
60018;SDS011;45870;42.528;26.740;2022-08-19T07:36:01;10.00;;;6.53;;
60018;SDS011;45870;42.528;26.740;2022-08-19T07:38:26;10.35;;;6.35;;
60018;SDS011;45870;42.528;26.740;2022-08-19T07:40:52;10.93;;;5.90;;
60018;SDS011;45870;42.528;26.740;2022-08-19T07:43:19;10.75;;;6.13;;
60018;SDS011;45870;42.528;26.740;2022-08-19T07:45:45;9.75;;;6.18;;
60018;SDS011;45870;42.528;26.740;2022-08-19T07:48:12;11.32;;;6.28;;
60018;SDS011;45870;42.528;26.740;2022-08-19T07:50:39;9.20;;;5.68;;
60018;SDS011;45870;42.528;26.740;2022-08-19T07:53:05;8.23;;;5.50;;
60018;SDS011;45870;42.528;26.740;2022-08-19T07:55:31;7.07;;;5.97;;
60018;SDS011;45870;42.528;26.740;2022-08-19T07:57:57;8.30;;;5.63;;
60018;SDS011;45870;42.528;26.740;2022-08-19T08:00:23;8.13;;;5.00;;
60018;SDS011;45870;42.528;26.740;2022-08-19T08:02:49;5.32;;;4.80;;
60018;SDS011;45870;42.528;26.740;2022-08-19T08:05:14;7.13;;;5.10;;
60018;SDS011;45870;42.528;26.740;2022-08-19T08:07:58;7.15;;;5.38;;
60018;SDS011;45870;42.528;26.740;2022-08-19T08:10:42;10.05;;;5.68;;
60018;SDS011;45870;42.528;26.740;2022-08-19T08:13:08;8.98;;;5.57;;
60018;SDS011;45870;42.528;26.740;2022-08-19T08:15:34;7.30;;;5.30;;
60018;SDS011;45870;42.528;26.740;2022-08-19T08:18:02;10.20;;;5.63;;
60018;SDS011;45870;42.528;26.740;2022-08-19T08:20:28;10.88;;;5.28;;
60018;SDS011;45870;42.528;26.740;2022-08-19T08:22:54;10.45;;;5.28;;
60018;SDS011;45870;42.528;26.740;2022-08-19T08:25:38;7.55;;;5.00;;
60018;SDS011;45870;42.528;26.740;2022-08-19T08:28:04;9.50;;;5.10;;
60018;SDS011;45870;42.528;26.740;2022-08-19T08:30:30;5.88;;;5.00;;
60018;SDS011;45870;42.528;26.740;2022-08-19T08:32:58;7.57;;;4.97;;
60018;SDS011;45870;42.528;26.740;2022-08-19T08:35:24;7.95;;;4.72;;
60018;SDS011;45870;42.528;26.740;2022-08-19T08:37:52;11.25;;;4.57;;
60018;SDS011;45870;42.528;26.740;2022-08-19T08:43:19;11.50;;;4.93;;
60018;SDS011;45870;42.528;26.740;2022-08-19T08:45:55;8.82;;;4.80;;
60018;SDS011;45870;42.528;26.740;2022-08-19T08:48:37;6.95;;;4.30;;
60018;SDS011;45870;42.528;26.740;2022-08-19T08:51:12;6.50;;;4.70;;
60018;SDS011;45870;42.528;26.740;2022-08-19T08:53:46;7.28;;;4.60;;
60018;SDS011;45870;42.528;26.740;2022-08-19T08:56:16;8.70;;;4.55;;
60018;SDS011;45870;42.528;26.740;2022-08-19T08:58:54;7.40;;;4.60;;
60018;SDS011;45870;42.528;26.740;2022-08-19T09:01:29;10.82;;;4.95;;
60018;SDS011;45870;42.528;26.740;2022-08-19T09:03:54;6.50;;;4.80;;
60018;SDS011;45870;42.528;26.740;2022-08-19T09:06:29;10.55;;;4.97;;
60018;SDS011;45870;42.528;26.740;2022-08-19T09:09:18;8.38;;;4.70;;
60018;SDS011;45870;42.528;26.740;2022-08-19T09:17:27;8.88;;;5.30;;
60018;SDS011;45870;42.528;26.740;2022-08-19T09:20:16;6.13;;;4.30;;
60018;SDS011;45870;42.528;26.740;2022-08-19T09:22:45;6.88;;;4.88;;
60018;SDS011;45870;42.528;26.740;2022-08-19T09:25:15;5.95;;;4.90;;
60018;SDS011;45870;42.528;26.740;2022-08-19T09:27:43;5.40;;;4.22;;
60018;SDS011;45870;42.528;26.740;2022-08-19T09:30:12;9.90;;;4.60;;
60018;SDS011;45870;42.528;26.740;2022-08-19T09:32:40;9.13;;;4.70;;
60018;SDS011;45870;42.528;26.740;2022-08-19T09:35:07;7.68;;;4.03;;
60018;SDS011;45870;42.528;26.740;2022-08-19T09:37:33;7.93;;;4.30;;
60018;SDS011;45870;42.528;26.740;2022-08-19T09:39:59;5.72;;;4.40;;
60018;SDS011;45870;42.528;26.740;2022-08-19T09:42:25;10.48;;;4.22;;
60018;SDS011;45870;42.528;26.740;2022-08-19T09:44:51;8.35;;;5.07;;
60018;SDS011;45870;42.528;26.740;2022-08-19T09:47:16;9.40;;;4.85;;
60018;SDS011;45870;42.528;26.740;2022-08-19T09:49:42;7.00;;;4.88;;
60018;SDS011;45870;42.528;26.740;2022-08-19T09:52:08;12.25;;;5.05;;
60018;SDS011;45870;42.528;26.740;2022-08-19T09:54:36;7.72;;;4.75;;
60018;SDS011;45870;42.528;26.740;2022-08-19T09:57:02;10.10;;;4.70;;
60018;SDS011;45870;42.528;26.740;2022-08-19T09:59:28;6.00;;;4.45;;
60018;SDS011;45870;42.528;26.740;2022-08-19T10:01:54;8.70;;;4.30;;
60018;SDS011;45870;42.528;26.740;2022-08-19T10:04:20;7.07;;;4.60;;
60018;SDS011;45870;42.528;26.740;2022-08-19T10:06:47;9.40;;;5.38;;
60018;SDS011;45870;42.528;26.740;2022-08-19T10:09:16;7.13;;;5.40;;
60018;SDS011;45870;42.528;26.740;2022-08-19T10:11:43;8.30;;;5.43;;
60018;SDS011;45870;42.528;26.740;2022-08-19T10:14:13;6.30;;;5.25;;
60018;SDS011;45870;42.528;26.740;2022-08-19T10:16:39;13.88;;;5.57;;
60018;SDS011;45870;42.528;26.740;2022-08-19T10:19:06;6.60;;;5.40;;
60018;SDS011;45870;42.528;26.740;2022-08-19T10:21:32;8.32;;;5.57;;
60018;SDS011;45870;42.528;26.740;2022-08-19T10:24:00;9.25;;;4.88;;
60018;SDS011;45870;42.528;26.740;2022-08-19T10:26:30;9.48;;;5.53;;
60018;SDS011;45870;42.528;26.740;2022-08-19T10:28:59;10.95;;;5.38;;
60018;SDS011;45870;42.528;26.740;2022-08-19T10:31:27;8.73;;;5.40;;
60018;SDS011;45870;42.528;26.740;2022-08-19T10:33:55;8.73;;;5.43;;
60018;SDS011;45870;42.528;26.740;2022-08-19T10:36:31;9.68;;;5.13;;
60018;SDS011;45870;42.528;26.740;2022-08-19T10:39:00;13.75;;;5.72;;
60018;SDS011;45870;42.528;26.740;2022-08-19T10:41:29;9.15;;;5.15;;
60018;SDS011;45870;42.528;26.740;2022-08-19T10:44:00;7.82;;;5.28;;
60018;SDS011;45870;42.528;26.740;2022-08-19T10:46:28;9.18;;;5.55;;
60018;SDS011;45870;42.528;26.740;2022-08-19T10:48:58;7.55;;;5.32;;
60018;SDS011;45870;42.528;26.740;2022-08-19T10:51:25;17.33;;;5.63;;
60018;SDS011;45870;42.528;26.740;2022-08-19T10:54:10;13.30;;;5.40;;
60018;SDS011;45870;42.528;26.740;2022-08-19T10:56:35;6.60;;;5.07;;
60018;SDS011;45870;42.528;26.740;2022-08-19T10:59:25;9.95;;;5.50;;
60018;SDS011;45870;42.528;26.740;2022-08-19T11:01:54;15.38;;;5.68;;
60018;SDS011;45870;42.528;26.740;2022-08-19T11:06:50;6.90;;;5.60;;
60018;SDS011;45870;42.528;26.740;2022-08-19T11:09:21;7.55;;;5.10;;
60018;SDS011;45870;42.528;26.740;2022-08-19T11:11:51;9.63;;;4.93;;
60018;SDS011;45870;42.528;26.740;2022-08-19T11:14:18;6.75;;;5.05;;
60018;SDS011;45870;42.528;26.740;2022-08-19T11:16:46;9.63;;;5.47;;
60018;SDS011;45870;42.528;26.740;2022-08-19T11:19:14;7.40;;;5.55;;
60018;SDS011;45870;42.528;26.740;2022-08-19T11:21:45;10.15;;;5.20;;
60018;SDS011;45870;42.528;26.740;2022-08-19T11:24:14;6.05;;;4.65;;
60018;SDS011;45870;42.528;26.740;2022-08-19T11:26:42;8.48;;;5.55;;
60018;SDS011;45870;42.528;26.740;2022-08-19T11:29:10;12.13;;;5.00;;
60018;SDS011;45870;42.528;26.740;2022-08-19T11:31:39;6.80;;;5.45;;
60018;SDS011;45870;42.528;26.740;2022-08-19T11:34:07;8.98;;;4.85;;
60018;SDS011;45870;42.528;26.740;2022-08-19T11:36:36;6.38;;;4.95;;
60018;SDS011;45870;42.528;26.740;2022-08-19T11:39:05;10.65;;;5.10;;
60018;SDS011;45870;42.528;26.740;2022-08-19T11:41:33;12.05;;;4.82;;
60018;SDS011;45870;42.528;26.740;2022-08-19T11:43:59;6.22;;;4.40;;
60018;SDS011;45870;42.528;26.740;2022-08-19T11:46:26;9.38;;;4.40;;
60018;SDS011;45870;42.528;26.740;2022-08-19T11:48:56;10.05;;;4.80;;
60018;SDS011;45870;42.528;26.740;2022-08-19T11:51:24;7.90;;;4.70;;
60018;SDS011;45870;42.528;26.740;2022-08-19T11:53:52;9.60;;;4.30;;
60018;SDS011;45870;42.528;26.740;2022-08-19T11:56:19;12.00;;;4.70;;
60018;SDS011;45870;42.528;26.740;2022-08-19T11:58:46;7.57;;;4.50;;
60018;SDS011;45870;42.528;26.740;2022-08-19T12:01:13;9.30;;;4.97;;
60018;SDS011;45870;42.528;26.740;2022-08-19T12:03:41;8.38;;;4.57;;
60018;SDS011;45870;42.528;26.740;2022-08-19T12:06:09;7.82;;;4.60;;
60018;SDS011;45870;42.528;26.740;2022-08-19T12:08:41;9.95;;;4.40;;
60018;SDS011;45870;42.528;26.740;2022-08-19T12:11:08;7.35;;;4.50;;
60018;SDS011;45870;42.528;26.740;2022-08-19T12:13:35;7.50;;;4.40;;
60018;SDS011;45870;42.528;26.740;2022-08-19T12:16:09;13.38;;;4.30;;
60018;SDS011;45870;42.528;26.740;2022-08-19T12:18:38;10.55;;;4.75;;
60018;SDS011;45870;42.528;26.740;2022-08-19T12:21:12;7.25;;;4.60;;
60018;SDS011;45870;42.528;26.740;2022-08-19T12:23:39;9.75;;;4.68;;
60018;SDS011;45870;42.528;26.740;2022-08-19T12:26:06;8.90;;;4.70;;
60018;SDS011;45870;42.528;26.740;2022-08-19T12:28:33;9.48;;;4.75;;
60018;SDS011;45870;42.528;26.740;2022-08-19T12:31:01;8.48;;;5.03;;
60018;SDS011;45870;42.528;26.740;2022-08-19T12:33:26;10.35;;;5.18;;
60018;SDS011;45870;42.528;26.740;2022-08-19T12:35:53;8.13;;;4.82;;
60018;SDS011;45870;42.528;26.740;2022-08-19T12:38:20;9.80;;;5.38;;
60018;SDS011;45870;42.528;26.740;2022-08-19T12:40:49;8.98;;;4.72;;
60018;SDS011;45870;42.528;26.740;2022-08-19T12:43:17;10.27;;;5.00;;
60018;SDS011;45870;42.528;26.740;2022-08-19T12:45:46;8.80;;;4.45;;
60018;SDS011;45870;42.528;26.740;2022-08-19T12:48:12;9.55;;;4.97;;
60018;SDS011;45870;42.528;26.740;2022-08-19T12:50:43;7.75;;;4.78;;
60018;SDS011;45870;42.528;26.740;2022-08-19T12:53:13;9.65;;;4.78;;
60018;SDS011;45870;42.528;26.740;2022-08-19T12:55:40;9.70;;;5.03;;
60018;SDS011;45870;42.528;26.740;2022-08-19T12:58:07;10.43;;;4.72;;
60018;SDS011;45870;42.528;26.740;2022-08-19T13:00:34;9.30;;;4.72;;
60018;SDS011;45870;42.528;26.740;2022-08-19T13:03:00;10.15;;;4.50;;
60018;SDS011;45870;42.528;26.740;2022-08-19T13:05:28;7.03;;;4.18;;
60018;SDS011;45870;42.528;26.740;2022-08-19T13:07:56;10.75;;;4.50;;
60018;SDS011;45870;42.528;26.740;2022-08-19T13:10:27;8.30;;;4.75;;
60018;SDS011;45870;42.528;26.740;2022-08-19T13:12:57;9.52;;;5.10;;
60018;SDS011;45870;42.528;26.740;2022-08-19T13:15:24;11.23;;;4.88;;
60018;SDS011;45870;42.528;26.740;2022-08-19T13:17:51;9.90;;;4.65;;
60018;SDS011;45870;42.528;26.740;2022-08-19T13:20:19;6.35;;;4.25;;
60018;SDS011;45870;42.528;26.740;2022-08-19T13:22:46;8.00;;;4.40;;
60018;SDS011;45870;42.528;26.740;2022-08-19T13:25:13;9.13;;;4.80;;
60018;SDS011;45870;42.528;26.740;2022-08-19T13:27:41;7.78;;;4.53;;
60018;SDS011;45870;42.528;26.740;2022-08-19T13:30:08;10.77;;;4.47;;
60018;SDS011;45870;42.528;26.740;2022-08-19T13:32:55;6.75;;;4.50;;
60018;SDS011;45870;42.528;26.740;2022-08-19T13:38:06;12.23;;;5.40;;
60018;SDS011;45870;42.528;26.740;2022-08-19T13:40:32;8.02;;;4.10;;
60018;SDS011;45870;42.528;26.740;2022-08-19T13:43:02;9.95;;;4.85;;
60018;SDS011;45870;42.528;26.740;2022-08-19T13:45:30;8.85;;;4.82;;
60018;SDS011;45870;42.528;26.740;2022-08-19T13:48:00;7.53;;;4.57;;
60018;SDS011;45870;42.528;26.740;2022-08-19T13:50:32;6.15;;;3.92;;
60018;SDS011;45870;42.528;26.740;2022-08-19T13:52:58;8.50;;;4.20;;
60018;SDS011;45870;42.528;26.740;2022-08-19T13:55:25;11.00;;;4.47;;
60018;SDS011;45870;42.528;26.740;2022-08-19T13:57:56;8.07;;;4.38;;
60018;SDS011;45870;42.528;26.740;2022-08-19T14:00:24;5.00;;;4.18;;
60018;SDS011;45870;42.528;26.740;2022-08-19T14:02:53;5.65;;;3.92;;
60018;SDS011;45870;42.528;26.740;2022-08-19T14:05:21;7.25;;;4.35;;
60018;SDS011;45870;42.528;26.740;2022-08-19T14:07:48;8.23;;;4.20;;
60018;SDS011;45870;42.528;26.740;2022-08-19T14:10:14;7.22;;;4.05;;
60018;SDS011;45870;42.528;26.740;2022-08-19T14:12:41;9.95;;;4.32;;
60018;SDS011;45870;42.528;26.740;2022-08-19T14:15:07;10.60;;;4.30;;
60018;SDS011;45870;42.528;26.740;2022-08-19T14:17:37;8.90;;;4.18;;
60018;SDS011;45870;42.528;26.740;2022-08-19T14:20:05;8.27;;;4.25;;
60018;SDS011;45870;42.528;26.740;2022-08-19T14:22:33;23.08;;;4.45;;
60018;SDS011;45870;42.528;26.740;2022-08-19T14:25:01;9.75;;;4.05;;
60018;SDS011;45870;42.528;26.740;2022-08-19T14:27:27;8.23;;;3.92;;
60018;SDS011;45870;42.528;26.740;2022-08-19T14:29:53;5.38;;;3.75;;
60018;SDS011;45870;42.528;26.740;2022-08-19T14:32:20;11.68;;;4.10;;
60018;SDS011;45870;42.528;26.740;2022-08-19T14:34:46;6.32;;;4.10;;
60018;SDS011;45870;42.528;26.740;2022-08-19T14:37:13;7.32;;;4.38;;
60018;SDS011;45870;42.528;26.740;2022-08-19T14:39:40;11.27;;;4.20;;
60018;SDS011;45870;42.528;26.740;2022-08-19T14:42:07;8.70;;;3.92;;
60018;SDS011;45870;42.528;26.740;2022-08-19T14:44:34;5.97;;;3.80;;
60018;SDS011;45870;42.528;26.740;2022-08-19T14:47:00;6.28;;;4.10;;
60018;SDS011;45870;42.528;26.740;2022-08-19T14:49:26;10.90;;;4.32;;
60018;SDS011;45870;42.528;26.740;2022-08-19T14:51:52;8.07;;;4.10;;